sensor_id;sensor_type;location;lat;lon;timestamp;P1;durP1;ratioP1;P2;durP2;ratioP2
39540;SDS011;25219;52.244;21.006;2023-01-08T00:01:28;71.53;;;28.40;;
39540;SDS011;25219;52.244;21.006;2023-01-08T00:03:53;64.88;;;27.38;;
39540;SDS011;25219;52.244;21.006;2023-01-08T00:06:18;66.90;;;28.60;;
39540;SDS011;25219;52.244;21.006;2023-01-08T00:08:45;60.58;;;27.17;;
39540;SDS011;25219;52.244;21.006;2023-01-08T00:11:13;65.55;;;28.85;;
39540;SDS011;25219;52.244;21.006;2023-01-08T00:13:38;60.28;;;25.02;;
39540;SDS011;25219;52.244;21.006;2023-01-08T00:16:04;60.47;;;25.98;;
39540;SDS011;25219;52.244;21.006;2023-01-08T00:18:30;64.70;;;27.83;;
39540;SDS011;25219;52.244;21.006;2023-01-08T00:20:55;63.28;;;28.05;;
39540;SDS011;25219;52.244;21.006;2023-01-08T00:23:20;60.70;;;25.98;;
39540;SDS011;25219;52.244;21.006;2023-01-08T00:25:47;65.55;;;25.95;;
39540;SDS011;25219;52.244;21.006;2023-01-08T00:28:12;60.70;;;26.85;;
39540;SDS011;25219;52.244;21.006;2023-01-08T00:30:39;64.50;;;28.05;;
39540;SDS011;25219;52.244;21.006;2023-01-08T00:33:07;57.25;;;26.80;;
39540;SDS011;25219;52.244;21.006;2023-01-08T00:35:32;56.47;;;24.52;;
39540;SDS011;25219;52.244;21.006;2023-01-08T00:37:57;62.10;;;27.13;;
39540;SDS011;25219;52.244;21.006;2023-01-08T00:40:23;62.70;;;27.23;;
39540;SDS011;25219;52.244;21.006;2023-01-08T00:42:48;65.50;;;27.85;;
39540;SDS011;25219;52.244;21.006;2023-01-08T00:45:15;59.30;;;25.45;;
39540;SDS011;25219;52.244;21.006;2023-01-08T00:47:40;61.05;;;25.00;;
39540;SDS011;25219;52.244;21.006;2023-01-08T00:50:06;62.55;;;26.30;;
39540;SDS011;25219;52.244;21.006;2023-01-08T00:52:31;56.55;;;26.27;;
39540;SDS011;25219;52.244;21.006;2023-01-08T00:54:56;57.45;;;25.38;;
39540;SDS011;25219;52.244;21.006;2023-01-08T00:57:22;50.05;;;25.05;;
39540;SDS011;25219;52.244;21.006;2023-01-08T00:59:47;48.55;;;23.45;;
39540;SDS011;25219;52.244;21.006;2023-01-08T01:02:15;56.08;;;25.52;;
39540;SDS011;25219;52.244;21.006;2023-01-08T01:04:40;49.42;;;24.75;;
39540;SDS011;25219;52.244;21.006;2023-01-08T01:07:08;49.72;;;24.67;;
39540;SDS011;25219;52.244;21.006;2023-01-08T01:09:33;49.53;;;23.90;;
39540;SDS011;25219;52.244;21.006;2023-01-08T01:12:01;49.05;;;23.38;;
39540;SDS011;25219;52.244;21.006;2023-01-08T01:14:26;52.17;;;24.90;;
39540;SDS011;25219;52.244;21.006;2023-01-08T01:16:52;47.40;;;22.77;;
39540;SDS011;25219;52.244;21.006;2023-01-08T01:19:17;50.38;;;22.92;;
39540;SDS011;25219;52.244;21.006;2023-01-08T01:21:42;51.55;;;23.15;;
39540;SDS011;25219;52.244;21.006;2023-01-08T01:24:08;44.22;;;22.35;;
39540;SDS011;25219;52.244;21.006;2023-01-08T01:26:35;41.67;;;21.52;;
39540;SDS011;25219;52.244;21.006;2023-01-08T01:29:00;51.38;;;22.65;;
39540;SDS011;25219;52.244;21.006;2023-01-08T01:31:26;51.30;;;23.52;;
39540;SDS011;25219;52.244;21.006;2023-01-08T01:33:52;46.75;;;22.73;;
39540;SDS011;25219;52.244;21.006;2023-01-08T01:36:18;46.05;;;23.40;;
39540;SDS011;25219;52.244;21.006;2023-01-08T01:38:47;44.13;;;22.63;;
39540;SDS011;25219;52.244;21.006;2023-01-08T01:41:34;46.58;;;23.05;;
39540;SDS011;25219;52.244;21.006;2023-01-08T01:46:44;43.58;;;21.92;;
39540;SDS011;25219;52.244;21.006;2023-01-08T01:49:11;52.13;;;23.33;;
39540;SDS011;25219;52.244;21.006;2023-01-08T01:51:43;45.83;;;23.67;;
39540;SDS011;25219;52.244;21.006;2023-01-08T01:54:10;47.22;;;23.13;;
39540;SDS011;25219;52.244;21.006;2023-01-08T01:56:37;42.70;;;20.33;;
39540;SDS011;25219;52.244;21.006;2023-01-08T01:59:02;45.55;;;21.70;;
39540;SDS011;25219;52.244;21.006;2023-01-08T02:01:28;47.85;;;21.55;;
39540;SDS011;25219;52.244;21.006;2023-01-08T02:03:55;44.40;;;21.42;;
39540;SDS011;25219;52.244;21.006;2023-01-08T02:06:36;45.92;;;21.85;;
39540;SDS011;25219;52.244;21.006;2023-01-08T02:16:49;41.00;;;20.93;;
39540;SDS011;25219;52.244;21.006;2023-01-08T02:24:22;46.70;;;21.80;;
39540;SDS011;25219;52.244;21.006;2023-01-08T02:26:51;39.80;;;20.13;;
39540;SDS011;25219;52.244;21.006;2023-01-08T02:29:19;39.10;;;19.95;;
39540;SDS011;25219;52.244;21.006;2023-01-08T02:31:44;44.53;;;20.33;;
39540;SDS011;25219;52.244;21.006;2023-01-08T02:34:10;41.00;;;19.40;;
39540;SDS011;25219;52.244;21.006;2023-01-08T02:36:40;41.67;;;19.80;;
39540;SDS011;25219;52.244;21.006;2023-01-08T02:44:16;38.67;;;19.45;;
39540;SDS011;25219;52.244;21.006;2023-01-08T02:49:11;33.63;;;16.87;;
39540;SDS011;25219;52.244;21.006;2023-01-08T02:51:48;33.83;;;17.10;;
39540;SDS011;25219;52.244;21.006;2023-01-08T02:54:15;28.92;;;15.38;;
39540;SDS011;25219;52.244;21.006;2023-01-08T02:56:44;31.00;;;15.50;;
39540;SDS011;25219;52.244;21.006;2023-01-08T02:59:10;31.85;;;15.48;;
39540;SDS011;25219;52.244;21.006;2023-01-08T03:04:17;26.73;;;14.23;;
39540;SDS011;25219;52.244;21.006;2023-01-08T03:06:43;34.70;;;14.85;;
39540;SDS011;25219;52.244;21.006;2023-01-08T03:09:10;26.77;;;14.32;;
39540;SDS011;25219;52.244;21.006;2023-01-08T03:11:43;30.20;;;13.57;;
39540;SDS011;25219;52.244;21.006;2023-01-08T03:14:22;29.25;;;14.02;;
39540;SDS011;25219;52.244;21.006;2023-01-08T03:16:48;25.40;;;13.52;;
39540;SDS011;25219;52.244;21.006;2023-01-08T03:19:26;28.30;;;14.13;;
39540;SDS011;25219;52.244;21.006;2023-01-08T03:21:52;28.08;;;13.25;;
39540;SDS011;25219;52.244;21.006;2023-01-08T03:24:21;21.88;;;12.55;;
39540;SDS011;25219;52.244;21.006;2023-01-08T03:26:48;23.38;;;12.27;;
39540;SDS011;25219;52.244;21.006;2023-01-08T03:29:14;26.13;;;12.98;;
39540;SDS011;25219;52.244;21.006;2023-01-08T03:31:41;29.45;;;12.65;;
39540;SDS011;25219;52.244;21.006;2023-01-08T03:34:08;25.90;;;13.32;;
39540;SDS011;25219;52.244;21.006;2023-01-08T03:36:34;27.67;;;12.90;;
39540;SDS011;25219;52.244;21.006;2023-01-08T03:39:11;23.67;;;13.00;;
39540;SDS011;25219;52.244;21.006;2023-01-08T03:41:38;25.20;;;12.40;;
39540;SDS011;25219;52.244;21.006;2023-01-08T03:44:03;23.73;;;12.20;;
39540;SDS011;25219;52.244;21.006;2023-01-08T03:46:33;26.08;;;11.82;;
39540;SDS011;25219;52.244;21.006;2023-01-08T03:49:02;25.08;;;12.20;;
39540;SDS011;25219;52.244;21.006;2023-01-08T03:51:37;22.25;;;11.25;;
39540;SDS011;25219;52.244;21.006;2023-01-08T03:54:02;28.92;;;12.90;;
39540;SDS011;25219;52.244;21.006;2023-01-08T03:56:28;24.02;;;12.88;;
39540;SDS011;25219;52.244;21.006;2023-01-08T03:58:53;29.88;;;13.43;;
39540;SDS011;25219;52.244;21.006;2023-01-08T04:01:18;26.10;;;12.68;;
39540;SDS011;25219;52.244;21.006;2023-01-08T04:03:44;26.88;;;12.20;;
39540;SDS011;25219;52.244;21.006;2023-01-08T04:06:09;28.88;;;12.48;;
39540;SDS011;25219;52.244;21.006;2023-01-08T04:08:34;26.90;;;13.20;;
39540;SDS011;25219;52.244;21.006;2023-01-08T04:11:00;29.45;;;12.38;;
39540;SDS011;25219;52.244;21.006;2023-01-08T04:13:27;24.65;;;12.02;;
39540;SDS011;25219;52.244;21.006;2023-01-08T04:15:55;24.30;;;11.55;;
39540;SDS011;25219;52.244;21.006;2023-01-08T04:18:22;21.83;;;11.60;;
39540;SDS011;25219;52.244;21.006;2023-01-08T04:20:49;24.10;;;11.88;;
39540;SDS011;25219;52.244;21.006;2023-01-08T04:23:14;21.15;;;12.00;;
39540;SDS011;25219;52.244;21.006;2023-01-08T04:25:40;20.77;;;11.70;;
39540;SDS011;25219;52.244;21.006;2023-01-08T04:28:08;25.20;;;11.20;;
39540;SDS011;25219;52.244;21.006;2023-01-08T04:30:33;21.25;;;9.70;;
39540;SDS011;25219;52.244;21.006;2023-01-08T04:32:58;19.88;;;9.75;;
39540;SDS011;25219;52.244;21.006;2023-01-08T04:35:24;23.27;;;10.55;;
39540;SDS011;25219;52.244;21.006;2023-01-08T04:37:49;22.52;;;10.55;;
39540;SDS011;25219;52.244;21.006;2023-01-08T04:40:14;17.80;;;9.65;;
39540;SDS011;25219;52.244;21.006;2023-01-08T04:42:42;18.30;;;8.90;;
39540;SDS011;25219;52.244;21.006;2023-01-08T04:45:07;19.10;;;10.15;;
39540;SDS011;25219;52.244;21.006;2023-01-08T04:47:33;20.15;;;10.55;;
39540;SDS011;25219;52.244;21.006;2023-01-08T04:49:59;20.50;;;10.40;;
39540;SDS011;25219;52.244;21.006;2023-01-08T04:52:24;18.35;;;9.30;;
39540;SDS011;25219;52.244;21.006;2023-01-08T04:54:49;19.48;;;9.50;;
39540;SDS011;25219;52.244;21.006;2023-01-08T04:57:15;22.95;;;10.15;;
39540;SDS011;25219;52.244;21.006;2023-01-08T04:59:40;18.55;;;10.40;;
39540;SDS011;25219;52.244;21.006;2023-01-08T05:02:05;20.75;;;11.20;;
39540;SDS011;25219;52.244;21.006;2023-01-08T05:04:31;23.13;;;11.40;;
39540;SDS011;25219;52.244;21.006;2023-01-08T05:06:58;22.33;;;11.35;;
39540;SDS011;25219;52.244;21.006;2023-01-08T05:09:23;26.52;;;11.57;;
39540;SDS011;25219;52.244;21.006;2023-01-08T05:11:49;22.88;;;12.23;;
39540;SDS011;25219;52.244;21.006;2023-01-08T05:14:14;23.40;;;10.30;;
39540;SDS011;25219;52.244;21.006;2023-01-08T05:16:42;21.52;;;10.82;;
39540;SDS011;25219;52.244;21.006;2023-01-08T05:19:07;18.90;;;9.80;;
39540;SDS011;25219;52.244;21.006;2023-01-08T05:21:35;24.23;;;10.02;;
39540;SDS011;25219;52.244;21.006;2023-01-08T05:24:00;20.17;;;9.77;;
39540;SDS011;25219;52.244;21.006;2023-01-08T05:26:25;19.75;;;10.65;;
39540;SDS011;25219;52.244;21.006;2023-01-08T05:28:51;18.63;;;9.85;;
39540;SDS011;25219;52.244;21.006;2023-01-08T05:31:17;16.13;;;9.40;;
39540;SDS011;25219;52.244;21.006;2023-01-08T05:33:42;20.23;;;10.00;;
39540;SDS011;25219;52.244;21.006;2023-01-08T05:36:08;18.58;;;9.73;;
39540;SDS011;25219;52.244;21.006;2023-01-08T05:38:33;17.45;;;9.45;;
39540;SDS011;25219;52.244;21.006;2023-01-08T05:41:01;18.75;;;9.27;;
39540;SDS011;25219;52.244;21.006;2023-01-08T05:43:27;21.63;;;8.68;;
39540;SDS011;25219;52.244;21.006;2023-01-08T05:45:52;18.92;;;10.13;;
39540;SDS011;25219;52.244;21.006;2023-01-08T05:48:18;15.52;;;8.85;;
39540;SDS011;25219;52.244;21.006;2023-01-08T05:50:43;18.30;;;8.20;;
39540;SDS011;25219;52.244;21.006;2023-01-08T05:53:08;18.40;;;8.75;;
39540;SDS011;25219;52.244;21.006;2023-01-08T05:55:34;19.30;;;8.50;;
39540;SDS011;25219;52.244;21.006;2023-01-08T05:58:00;18.67;;;7.82;;
39540;SDS011;25219;52.244;21.006;2023-01-08T06:00:25;17.55;;;8.68;;
39540;SDS011;25219;52.244;21.006;2023-01-08T06:02:51;16.77;;;8.82;;
39540;SDS011;25219;52.244;21.006;2023-01-08T06:05:16;21.55;;;8.10;;
39540;SDS011;25219;52.244;21.006;2023-01-08T06:07:41;20.33;;;8.27;;
39540;SDS011;25219;52.244;21.006;2023-01-08T06:10:07;15.65;;;8.98;;
39540;SDS011;25219;52.244;21.006;2023-01-08T06:12:32;17.65;;;9.07;;
39540;SDS011;25219;52.244;21.006;2023-01-08T06:14:57;14.10;;;8.50;;
39540;SDS011;25219;52.244;21.006;2023-01-08T06:17:23;17.67;;;8.82;;
39540;SDS011;25219;52.244;21.006;2023-01-08T06:19:48;20.33;;;9.68;;
39540;SDS011;25219;52.244;21.006;2023-01-08T06:22:13;17.73;;;9.50;;
39540;SDS011;25219;52.244;21.006;2023-01-08T06:24:41;18.98;;;8.98;;
39540;SDS011;25219;52.244;21.006;2023-01-08T06:27:06;18.42;;;8.63;;
39540;SDS011;25219;52.244;21.006;2023-01-08T06:29:32;17.73;;;8.95;;
39540;SDS011;25219;52.244;21.006;2023-01-08T06:31:57;17.67;;;9.20;;
39540;SDS011;25219;52.244;21.006;2023-01-08T06:34:22;24.10;;;9.30;;
39540;SDS011;25219;52.244;21.006;2023-01-08T06:36:48;21.55;;;9.90;;
39540;SDS011;25219;52.244;21.006;2023-01-08T06:39:15;17.23;;;8.80;;
39540;SDS011;25219;52.244;21.006;2023-01-08T06:41:41;15.48;;;8.77;;
39540;SDS011;25219;52.244;21.006;2023-01-08T06:44:06;17.13;;;8.95;;
39540;SDS011;25219;52.244;21.006;2023-01-08T06:46:32;18.63;;;9.00;;
39540;SDS011;25219;52.244;21.006;2023-01-08T06:49:02;17.75;;;8.40;;
39540;SDS011;25219;52.244;21.006;2023-01-08T06:51:27;16.33;;;8.98;;
39540;SDS011;25219;52.244;21.006;2023-01-08T06:53:52;19.63;;;7.90;;
39540;SDS011;25219;52.244;21.006;2023-01-08T06:56:18;19.10;;;7.78;;
39540;SDS011;25219;52.244;21.006;2023-01-08T06:58:43;21.90;;;8.50;;
39540;SDS011;25219;52.244;21.006;2023-01-08T07:01:11;17.58;;;9.10;;
39540;SDS011;25219;52.244;21.006;2023-01-08T07:03:37;16.13;;;8.50;;
39540;SDS011;25219;52.244;21.006;2023-01-08T07:06:02;19.13;;;7.93;;
39540;SDS011;25219;52.244;21.006;2023-01-08T07:08:28;16.83;;;8.82;;
39540;SDS011;25219;52.244;21.006;2023-01-08T07:10:53;20.45;;;8.65;;
39540;SDS011;25219;52.244;21.006;2023-01-08T07:13:18;20.33;;;8.80;;
39540;SDS011;25219;52.244;21.006;2023-01-08T07:15:44;21.63;;;9.45;;
39540;SDS011;25219;52.244;21.006;2023-01-08T07:18:10;18.52;;;8.75;;
39540;SDS011;25219;52.244;21.006;2023-01-08T07:20:36;15.57;;;7.88;;
39540;SDS011;25219;52.244;21.006;2023-01-08T07:23:07;19.92;;;9.30;;
39540;SDS011;25219;52.244;21.006;2023-01-08T07:25:33;21.40;;;9.65;;
39540;SDS011;25219;52.244;21.006;2023-01-08T07:27:59;19.58;;;9.77;;
39540;SDS011;25219;52.244;21.006;2023-01-08T07:30:26;20.25;;;9.60;;
39540;SDS011;25219;52.244;21.006;2023-01-08T07:32:51;21.42;;;9.20;;
39540;SDS011;25219;52.244;21.006;2023-01-08T07:35:20;21.73;;;10.18;;
39540;SDS011;25219;52.244;21.006;2023-01-08T07:37:45;20.45;;;9.00;;
39540;SDS011;25219;52.244;21.006;2023-01-08T07:40:10;19.52;;;9.25;;
39540;SDS011;25219;52.244;21.006;2023-01-08T07:42:36;17.50;;;9.55;;
39540;SDS011;25219;52.244;21.006;2023-01-08T07:45:02;20.63;;;9.90;;
39540;SDS011;25219;52.244;21.006;2023-01-08T07:47:27;21.55;;;10.02;;
39540;SDS011;25219;52.244;21.006;2023-01-08T07:49:52;24.27;;;9.65;;
39540;SDS011;25219;52.244;21.006;2023-01-08T07:52:18;22.38;;;10.20;;
39540;SDS011;25219;52.244;21.006;2023-01-08T07:54:43;26.80;;;9.70;;
39540;SDS011;25219;52.244;21.006;2023-01-08T07:57:09;20.48;;;9.70;;
39540;SDS011;25219;52.244;21.006;2023-01-08T07:59:34;22.00;;;10.18;;
39540;SDS011;25219;52.244;21.006;2023-01-08T08:01:59;26.38;;;10.65;;
39540;SDS011;25219;52.244;21.006;2023-01-08T08:04:25;20.52;;;9.77;;
39540;SDS011;25219;52.244;21.006;2023-01-08T08:06:50;19.15;;;9.98;;
39540;SDS011;25219;52.244;21.006;2023-01-08T08:09:15;17.40;;;9.13;;
39540;SDS011;25219;52.244;21.006;2023-01-08T08:11:41;19.88;;;9.20;;
39540;SDS011;25219;52.244;21.006;2023-01-08T08:14:06;25.77;;;10.65;;
39540;SDS011;25219;52.244;21.006;2023-01-08T08:16:32;30.38;;;9.57;;
39540;SDS011;25219;52.244;21.006;2023-01-08T08:18:57;19.45;;;8.80;;
39540;SDS011;25219;52.244;21.006;2023-01-08T08:21:23;21.15;;;9.18;;
39540;SDS011;25219;52.244;21.006;2023-01-08T08:23:48;18.95;;;9.75;;
39540;SDS011;25219;52.244;21.006;2023-01-08T08:26:13;20.50;;;9.35;;
39540;SDS011;25219;52.244;21.006;2023-01-08T08:28:39;21.52;;;9.45;;
39540;SDS011;25219;52.244;21.006;2023-01-08T08:31:04;20.08;;;9.68;;
39540;SDS011;25219;52.244;21.006;2023-01-08T08:33:30;24.13;;;10.77;;
39540;SDS011;25219;52.244;21.006;2023-01-08T08:35:55;21.67;;;9.82;;
39540;SDS011;25219;52.244;21.006;2023-01-08T08:38:20;20.73;;;9.48;;
39540;SDS011;25219;52.244;21.006;2023-01-08T08:40:45;22.25;;;9.98;;
39540;SDS011;25219;52.244;21.006;2023-01-08T08:43:11;19.95;;;10.10;;
39540;SDS011;25219;52.244;21.006;2023-01-08T08:45:36;24.58;;;11.10;;
39540;SDS011;25219;52.244;21.006;2023-01-08T08:48:04;23.85;;;10.48;;
39540;SDS011;25219;52.244;21.006;2023-01-08T08:50:29;21.23;;;9.38;;
39540;SDS011;25219;52.244;21.006;2023-01-08T08:52:58;23.98;;;10.23;;
39540;SDS011;25219;52.244;21.006;2023-01-08T08:55:24;21.98;;;9.68;;
39540;SDS011;25219;52.244;21.006;2023-01-08T08:57:49;17.35;;;9.93;;
39540;SDS011;25219;52.244;21.006;2023-01-08T09:00:15;21.98;;;10.35;;
39540;SDS011;25219;52.244;21.006;2023-01-08T09:02:40;18.90;;;11.07;;
39540;SDS011;25219;52.244;21.006;2023-01-08T09:05:06;21.88;;;10.00;;
39540;SDS011;25219;52.244;21.006;2023-01-08T09:07:31;25.77;;;10.75;;
39540;SDS011;25219;52.244;21.006;2023-01-08T09:09:56;28.08;;;11.10;;
39540;SDS011;25219;52.244;21.006;2023-01-08T09:12:22;21.23;;;10.65;;
39540;SDS011;25219;52.244;21.006;2023-01-08T09:14:47;20.95;;;9.90;;
39540;SDS011;25219;52.244;21.006;2023-01-08T09:17:14;23.60;;;10.40;;
39540;SDS011;25219;52.244;21.006;2023-01-08T09:19:39;22.73;;;10.57;;
39540;SDS011;25219;52.244;21.006;2023-01-08T09:22:05;22.65;;;10.85;;
39540;SDS011;25219;52.244;21.006;2023-01-08T09:24:30;19.60;;;10.35;;
39540;SDS011;25219;52.244;21.006;2023-01-08T09:26:58;21.83;;;9.98;;
39540;SDS011;25219;52.244;21.006;2023-01-08T09:29:23;21.98;;;9.48;;
39540;SDS011;25219;52.244;21.006;2023-01-08T09:31:49;20.35;;;10.32;;
39540;SDS011;25219;52.244;21.006;2023-01-08T09:34:14;23.50;;;10.70;;
39540;SDS011;25219;52.244;21.006;2023-01-08T09:36:39;22.17;;;10.68;;
39540;SDS011;25219;52.244;21.006;2023-01-08T09:39:04;21.98;;;10.70;;
39540;SDS011;25219;52.244;21.006;2023-01-08T09:41:30;22.52;;;10.93;;
39540;SDS011;25219;52.244;21.006;2023-01-08T09:43:57;24.45;;;10.90;;
39540;SDS011;25219;52.244;21.006;2023-01-08T09:46:25;66.10;;;34.30;;
39540;SDS011;25219;52.244;21.006;2023-01-08T09:48:51;20.92;;;10.63;;
39540;SDS011;25219;52.244;21.006;2023-01-08T09:51:18;22.52;;;10.73;;
39540;SDS011;25219;52.244;21.006;2023-01-08T09:53:44;21.02;;;10.77;;
39540;SDS011;25219;52.244;21.006;2023-01-08T09:56:12;24.00;;;10.85;;
39540;SDS011;25219;52.244;21.006;2023-01-08T09:58:39;21.50;;;11.32;;
39540;SDS011;25219;52.244;21.006;2023-01-08T10:01:05;17.38;;;10.10;;
39540;SDS011;25219;52.244;21.006;2023-01-08T10:03:39;27.30;;;12.13;;
39540;SDS011;25219;52.244;21.006;2023-01-08T10:06:12;22.75;;;11.02;;
39540;SDS011;25219;52.244;21.006;2023-01-08T10:08:38;20.88;;;11.13;;
39540;SDS011;25219;52.244;21.006;2023-01-08T10:11:03;19.67;;;10.50;;
39540;SDS011;25219;52.244;21.006;2023-01-08T10:13:29;19.13;;;10.77;;
39540;SDS011;25219;52.244;21.006;2023-01-08T10:15:55;21.23;;;11.15;;
39540;SDS011;25219;52.244;21.006;2023-01-08T10:18:21;21.38;;;11.27;;
39540;SDS011;25219;52.244;21.006;2023-01-08T10:20:47;19.35;;;10.02;;
39540;SDS011;25219;52.244;21.006;2023-01-08T10:23:16;59.38;;;25.50;;
39540;SDS011;25219;52.244;21.006;2023-01-08T10:25:48;23.73;;;10.60;;
39540;SDS011;25219;52.244;21.006;2023-01-08T10:28:17;20.55;;;10.90;;
39540;SDS011;25219;52.244;21.006;2023-01-08T10:30:43;22.58;;;11.07;;
39540;SDS011;25219;52.244;21.006;2023-01-08T10:33:13;22.23;;;10.77;;
39540;SDS011;25219;52.244;21.006;2023-01-08T10:35:42;23.88;;;11.13;;
39540;SDS011;25219;52.244;21.006;2023-01-08T10:38:29;19.88;;;10.40;;
39540;SDS011;25219;52.244;21.006;2023-01-08T10:40:53;21.27;;;10.65;;
39540;SDS011;25219;52.244;21.006;2023-01-08T10:43:24;20.98;;;10.88;;
39540;SDS011;25219;52.244;21.006;2023-01-08T10:46:24;24.35;;;11.60;;
39540;SDS011;25219;52.244;21.006;2023-01-08T10:48:46;25.17;;;12.93;;
39540;SDS011;25219;52.244;21.006;2023-01-08T10:51:13;20.73;;;11.80;;
39540;SDS011;25219;52.244;21.006;2023-01-08T10:53:39;21.73;;;11.95;;
39540;SDS011;25219;52.244;21.006;2023-01-08T10:56:05;23.83;;;12.52;;
39540;SDS011;25219;52.244;21.006;2023-01-08T10:58:41;26.60;;;13.10;;
39540;SDS011;25219;52.244;21.006;2023-01-08T11:01:07;26.50;;;12.82;;
39540;SDS011;25219;52.244;21.006;2023-01-08T11:03:33;24.33;;;13.20;;
39540;SDS011;25219;52.244;21.006;2023-01-08T11:05:58;29.40;;;14.90;;
39540;SDS011;25219;52.244;21.006;2023-01-08T11:08:23;29.48;;;14.27;;
39540;SDS011;25219;52.244;21.006;2023-01-08T11:10:52;27.65;;;14.35;;
39540;SDS011;25219;52.244;21.006;2023-01-08T11:13:18;24.83;;;14.38;;
39540;SDS011;25219;52.244;21.006;2023-01-08T11:15:43;31.45;;;15.40;;
39540;SDS011;25219;52.244;21.006;2023-01-08T11:18:19;30.50;;;14.75;;
39540;SDS011;25219;52.244;21.006;2023-01-08T11:20:45;25.35;;;13.80;;
39540;SDS011;25219;52.244;21.006;2023-01-08T11:23:15;29.38;;;13.68;;
39540;SDS011;25219;52.244;21.006;2023-01-08T11:25:43;33.70;;;14.57;;
39540;SDS011;25219;52.244;21.006;2023-01-08T11:28:10;27.75;;;13.40;;
39540;SDS011;25219;52.244;21.006;2023-01-08T11:30:39;26.52;;;14.00;;
39540;SDS011;25219;52.244;21.006;2023-01-08T11:33:15;29.15;;;14.02;;
39540;SDS011;25219;52.244;21.006;2023-01-08T11:35:43;28.10;;;14.23;;
39540;SDS011;25219;52.244;21.006;2023-01-08T11:38:11;27.80;;;14.43;;
39540;SDS011;25219;52.244;21.006;2023-01-08T11:40:48;27.08;;;13.85;;
39540;SDS011;25219;52.244;21.006;2023-01-08T11:48:18;27.27;;;13.80;;
39540;SDS011;25219;52.244;21.006;2023-01-08T11:50:53;26.13;;;13.90;;
39540;SDS011;25219;52.244;21.006;2023-01-08T11:53:54;28.25;;;14.13;;
39540;SDS011;25219;52.244;21.006;2023-01-08T12:09:12;32.58;;;15.57;;
39540;SDS011;25219;52.244;21.006;2023-01-08T12:11:47;31.52;;;16.50;;
39540;SDS011;25219;52.244;21.006;2023-01-08T12:14:39;28.38;;;15.20;;
39540;SDS011;25219;52.244;21.006;2023-01-08T12:29:30;30.25;;;15.18;;
39540;SDS011;25219;52.244;21.006;2023-01-08T12:37:20;31.05;;;14.05;;
39540;SDS011;25219;52.244;21.006;2023-01-08T12:39:57;32.00;;;14.88;;
39540;SDS011;25219;52.244;21.006;2023-01-08T12:42:28;26.73;;;14.48;;
39540;SDS011;25219;52.244;21.006;2023-01-08T12:44:55;31.33;;;15.40;;
39540;SDS011;25219;52.244;21.006;2023-01-08T12:47:21;29.33;;;14.85;;
39540;SDS011;25219;52.244;21.006;2023-01-08T12:57:41;28.75;;;14.63;;
39540;SDS011;25219;52.244;21.006;2023-01-08T13:03:13;26.70;;;14.32;;
39540;SDS011;25219;52.244;21.006;2023-01-08T13:05:43;30.65;;;15.75;;
39540;SDS011;25219;52.244;21.006;2023-01-08T13:08:22;29.58;;;14.65;;
39540;SDS011;25219;52.244;21.006;2023-01-08T13:10:49;29.58;;;15.60;;
39540;SDS011;25219;52.244;21.006;2023-01-08T13:13:31;31.38;;;14.90;;
39540;SDS011;25219;52.244;21.006;2023-01-08T13:16:07;28.98;;;15.15;;
39540;SDS011;25219;52.244;21.006;2023-01-08T13:18:33;32.53;;;17.13;;
39540;SDS011;25219;52.244;21.006;2023-01-08T13:20:59;30.27;;;16.13;;
39540;SDS011;25219;52.244;21.006;2023-01-08T13:23:28;33.55;;;17.13;;
39540;SDS011;25219;52.244;21.006;2023-01-08T13:25:55;31.70;;;16.50;;
39540;SDS011;25219;52.244;21.006;2023-01-08T13:28:44;30.65;;;16.73;;
39540;SDS011;25219;52.244;21.006;2023-01-08T13:33:46;37.97;;;18.35;;
39540;SDS011;25219;52.244;21.006;2023-01-08T13:38:46;34.70;;;17.35;;
39540;SDS011;25219;52.244;21.006;2023-01-08T13:41:32;35.55;;;17.85;;
39540;SDS011;25219;52.244;21.006;2023-01-08T13:46:26;36.83;;;18.08;;
39540;SDS011;25219;52.244;21.006;2023-01-08T13:54:17;34.85;;;18.15;;
39540;SDS011;25219;52.244;21.006;2023-01-08T13:56:44;33.92;;;18.40;;
39540;SDS011;25219;52.244;21.006;2023-01-08T14:01:51;35.92;;;16.60;;
39540;SDS011;25219;52.244;21.006;2023-01-08T14:04:20;34.88;;;18.65;;
39540;SDS011;25219;52.244;21.006;2023-01-08T14:06:46;37.25;;;18.98;;
39540;SDS011;25219;52.244;21.006;2023-01-08T14:09:16;36.78;;;18.10;;
39540;SDS011;25219;52.244;21.006;2023-01-08T14:11:46;44.47;;;17.88;;
39540;SDS011;25219;52.244;21.006;2023-01-08T14:14:12;40.50;;;18.42;;
39540;SDS011;25219;52.244;21.006;2023-01-08T14:16:38;39.90;;;18.27;;
39540;SDS011;25219;52.244;21.006;2023-01-08T14:19:04;37.08;;;17.45;;
39540;SDS011;25219;52.244;21.006;2023-01-08T14:21:30;43.67;;;19.27;;
39540;SDS011;25219;52.244;21.006;2023-01-08T14:23:55;36.78;;;18.17;;
39540;SDS011;25219;52.244;21.006;2023-01-08T14:26:33;37.47;;;17.70;;
39540;SDS011;25219;52.244;21.006;2023-01-08T14:29:15;39.13;;;17.92;;
39540;SDS011;25219;52.244;21.006;2023-01-08T14:31:44;34.35;;;17.73;;
39540;SDS011;25219;52.244;21.006;2023-01-08T14:34:10;38.08;;;17.42;;
39540;SDS011;25219;52.244;21.006;2023-01-08T14:36:36;44.15;;;19.52;;
39540;SDS011;25219;52.244;21.006;2023-01-08T14:39:08;36.45;;;17.77;;
39540;SDS011;25219;52.244;21.006;2023-01-08T14:41:34;38.55;;;17.98;;
39540;SDS011;25219;52.244;21.006;2023-01-08T14:44:19;43.85;;;18.05;;
39540;SDS011;25219;52.244;21.006;2023-01-08T14:46:45;43.83;;;18.48;;
39540;SDS011;25219;52.244;21.006;2023-01-08T14:49:30;40.33;;;18.77;;
39540;SDS011;25219;52.244;21.006;2023-01-08T14:51:56;39.38;;;18.00;;
39540;SDS011;25219;52.244;21.006;2023-01-08T14:54:25;41.53;;;19.27;;
39540;SDS011;25219;52.244;21.006;2023-01-08T14:56:52;38.70;;;18.27;;
39540;SDS011;25219;52.244;21.006;2023-01-08T14:59:20;35.65;;;17.48;;
39540;SDS011;25219;52.244;21.006;2023-01-08T15:01:50;36.25;;;17.50;;
39540;SDS011;25219;52.244;21.006;2023-01-08T15:04:16;44.33;;;18.48;;
39540;SDS011;25219;52.244;21.006;2023-01-08T15:06:42;41.42;;;19.38;;
39540;SDS011;25219;52.244;21.006;2023-01-08T15:09:23;44.67;;;19.10;;
39540;SDS011;25219;52.244;21.006;2023-01-08T15:11:52;40.60;;;18.45;;
39540;SDS011;25219;52.244;21.006;2023-01-08T15:14:20;43.17;;;18.30;;
39540;SDS011;25219;52.244;21.006;2023-01-08T15:16:46;38.22;;;17.92;;
39540;SDS011;25219;52.244;21.006;2023-01-08T15:21:37;41.58;;;18.70;;
39540;SDS011;25219;52.244;21.006;2023-01-08T15:24:03;48.22;;;19.02;;
39540;SDS011;25219;52.244;21.006;2023-01-08T15:26:30;45.33;;;20.13;;
39540;SDS011;25219;52.244;21.006;2023-01-08T15:28:56;41.70;;;20.20;;
39540;SDS011;25219;52.244;21.006;2023-01-08T15:31:23;38.42;;;17.70;;
39540;SDS011;25219;52.244;21.006;2023-01-08T15:33:48;41.60;;;17.98;;
39540;SDS011;25219;52.244;21.006;2023-01-08T15:36:14;39.45;;;19.30;;
39540;SDS011;25219;52.244;21.006;2023-01-08T15:38:39;39.97;;;17.20;;
39540;SDS011;25219;52.244;21.006;2023-01-08T15:41:07;36.95;;;17.83;;
39540;SDS011;25219;52.244;21.006;2023-01-08T15:43:33;41.08;;;17.40;;